Time;durP1;ratioP1;P1;durP2;ratioP2;P2;SDS_P1;SDS_P2;PMS_P1;PMS_P2;Temp;Humidity;BMP_temperature;BMP_pressure;BME280_temperature;BME280_humidity;BME280_pressure;Samples;Min_cycle;Max_cycle;Signal;HPM_P1;HPM_P2
2022/02/19 00:02:01;;;;;;;19.20;6.45;;;;;;;9.33;50.63;99700.63;5106381;28;20027;-68
2022/02/19 00:04:27;;;;;;;14.38;6.80;;;;;;;9.36;50.67;99696.84;5104450;28;20030;-67
2022/02/19 00:06:52;;;;;;;18.65;7.20;;;;;;;9.32;51.23;99698.09;5105564;28;20100;-68
2022/02/19 00:09:18;;;;;;;20.45;7.47;;;;;;;9.27;50.97;99701.22;5105730;28;20019;-69
2022/02/19 00:11:43;;;;;;;19.80;6.95;;;;;;;9.26;50.92;99690.66;5106465;28;21167;-68
2022/02/19 00:14:09;;;;;;;24.88;7.20;;;;;;;9.27;50.95;99686.97;5106341;28;20024;-69
2022/02/19 00:16:36;;;;;;;17.67;7.25;;;;;;;9.17;51.16;99699.50;5106298;28;20028;-69
2022/02/19 00:19:02;;;;;;;22.80;7.18;;;;;;;9.11;51.42;99697.41;5106516;28;20031;-69
2022/02/19 00:21:28;;;;;;;25.20;7.63;;;;;;;9.17;51.32;99696.84;5106598;28;20057;-69
2022/02/19 00:23:53;;;;;;;17.27;7.47;;;;;;;9.05;51.47;99685.44;5105967;28;20031;-68
2022/02/19 00:26:19;;;;;;;16.05;6.78;;;;;;;9.12;51.46;99701.75;5106444;28;20023;-69
2022/02/19 00:28:44;;;;;;;14.82;6.30;;;;;;;9.15;51.90;99714.84;5106207;28;20028;-69
2022/02/19 00:31:09;;;;;;;15.32;6.47;;;;;;;9.08;52.05;99711.91;5106319;28;20103;-69
2022/02/19 00:33:35;;;;;;;14.40;6.38;;;;;;;9.06;52.25;99705.84;5106849;28;20019;-69
2022/02/19 00:36:00;;;;;;;22.77;7.78;;;;;;;9.04;52.25;99696.28;5106878;28;20024;-70
2022/02/19 00:38:26;;;;;;;20.40;7.50;;;;;;;9.09;52.32;99705.56;5105883;28;20043;-69
2022/02/19 00:40:51;;;;;;;19.15;6.68;;;;;;;8.99;52.73;99707.38;5104943;28;21809;-68
2022/02/19 00:43:17;;;;;;;18.05;7.13;;;;;;;8.94;53.08;99709.63;5106802;28;20051;-68
2022/02/19 00:45:43;;;;;;;19.65;6.90;;;;;;;8.86;53.16;99692.59;5104885;28;20032;-69
2022/02/19 00:48:09;;;;;;;16.38;6.53;;;;;;;8.83;53.08;99707.09;5108963;28;20456;-69
2022/02/19 00:50:34;;;;;;;16.17;6.78;;;;;;;8.85;53.05;99706.94;5109249;28;20106;-68
2022/02/19 00:53:00;;;;;;;18.08;6.25;;;;;;;8.82;53.09;99709.91;5109917;28;20020;-69
2022/02/19 00:55:26;;;;;;;19.90;7.38;;;;;;;8.82;53.40;99713.44;5110040;28;20474;-69
2022/02/19 00:57:51;;;;;;;21.33;6.55;;;;;;;8.83;53.68;99716.94;5109889;28;20024;-69
2022/02/19 01:00:17;;;;;;;19.42;6.70;;;;;;;8.79;53.77;99716.38;5110060;28;20033;-68
2022/02/19 01:02:42;;;;;;;20.35;7.72;;;;;;;8.80;53.53;99711.84;5110118;28;20034;-67
2022/02/19 01:05:09;;;;;;;16.10;6.85;;;;;;;8.73;54.18;99711.56;5110283;28;20063;-67
2022/02/19 01:07:34;;;;;;;17.15;7.28;;;;;;;8.78;53.79;99711.16;5108035;28;20080;-68
2022/02/19 01:10:00;;;;;;;18.38;7.43;;;;;;;8.70;54.03;99698.47;5109511;28;20031;-68
2022/02/19 01:12:26;;;;;;;15.13;6.80;;;;;;;8.70;54.18;99702.97;5109479;27;20039;-67
2022/02/19 01:14:51;;;;;;;17.52;7.00;;;;;;;8.65;54.44;99695.34;5107574;28;20077;-68
2022/02/19 01:17:17;;;;;;;22.30;7.38;;;;;;;8.63;54.19;99699.16;5109184;28;20080;-67
2022/02/19 01:19:43;;;;;;;15.07;6.47;;;;;;;8.57;54.80;99697.88;5109205;28;20167;-68
2022/02/19 01:22:08;;;;;;;18.85;7.22;;;;;;;8.51;54.73;99681.53;5109175;28;20034;-69
2022/02/19 01:24:34;;;;;;;18.98;6.85;;;;;;;8.49;54.93;99689.72;5109564;28;20039;-68
2022/02/19 01:27:00;;;;;;;20.08;7.10;;;;;;;8.45;55.34;99682.13;5109134;28;20122;-69
2022/02/19 01:29:26;;;;;;;18.75;6.90;;;;;;;8.41;55.21;99683.34;5109193;28;20032;-69
2022/02/19 01:31:51;;;;;;;15.35;6.72;;;;;;;8.44;55.35;99686.59;5110180;28;20020;-68
2022/02/19 01:34:17;;;;;;;15.80;6.57;;;;;;;8.44;55.77;99691.09;5110623;28;21317;-68
2022/02/19 01:36:43;;;;;;;19.02;6.93;;;;;;;8.42;55.85;99680.53;5107112;28;20059;-67
2022/02/19 01:39:09;;;;;;;18.95;6.60;;;;;;;8.31;56.04;99667.31;5109144;28;20088;-69
2022/02/19 01:41:34;;;;;;;14.18;6.55;;;;;;;8.35;56.51;99673.22;5109377;28;20028;-68
2022/02/19 01:44:08;;;;;;;17.85;6.65;;;;;;;8.33;56.66;99661.81;5108490;28;20047;-68
2022/02/19 01:46:34;;;;;;;17.35;6.65;;;;;;;8.33;56.37;99672.50;5107001;28;20051;-68
2022/02/19 01:49:00;;;;;;;16.08;6.57;;;;;;;8.38;56.42;99670.25;5109186;28;20040;-69
2022/02/19 01:51:26;;;;;;;14.43;6.40;;;;;;;8.27;56.56;99668.56;5109051;28;20019;-68
2022/02/19 01:53:51;;;;;;;16.15;6.88;;;;;;;8.26;56.76;99658.00;5108618;28;20108;-68
2022/02/19 01:56:17;;;;;;;17.60;6.43;;;;;;;8.32;56.86;99670.84;5109075;28;20107;-68
2022/02/19 01:58:42;;;;;;;17.88;6.95;;;;;;;8.29;57.41;99665.75;5108606;28;20129;-69
2022/02/19 02:01:08;;;;;;;16.20;7.65;;;;;;;8.26;57.35;99660.69;5108564;28;20028;-69
2022/02/19 02:03:33;;;;;;;12.80;6.22;;;;;;;8.18;57.45;99660.47;5109504;28;20047;-68
2022/02/19 02:06:00;;;;;;;12.05;6.53;;;;;;;8.27;57.59;99673.06;5108131;28;20457;-69
2022/02/19 02:08:26;;;;;;;17.60;8.02;;;;;;;8.22;58.11;99668.13;5109443;28;20036;-68
2022/02/19 02:10:52;;;;;;;13.07;6.45;;;;;;;8.24;58.43;99665.31;5109858;28;20843;-69
2022/02/19 02:13:18;;;;;;;16.60;6.82;;;;;;;8.19;58.69;99654.16;5108786;28;20020;-68
2022/02/19 02:15:43;;;;;;;14.15;6.50;;;;;;;8.23;58.71;99655.63;5107262;28;20459;-67
2022/02/19 02:18:09;;;;;;;13.85;6.30;;;;;;;8.24;58.42;99659.97;5108765;28;20058;-68
2022/02/19 02:20:34;;;;;;;12.93;6.00;;;;;;;8.23;58.99;99666.31;5107896;28;20131;-68
2022/02/19 02:23:00;;;;;;;13.82;6.63;;;;;;;8.19;59.11;99657.66;5108357;27;20057;-68
2022/02/19 02:25:33;;;;;;;12.98;5.47;;;;;;;8.14;58.95;99643.91;5108173;28;20106;-68
2022/02/19 02:27:59;;;;;;;15.43;6.03;;;;;;;8.17;59.53;99656.13;5107952;28;20386;-67
2022/02/19 02:30:25;;;;;;;18.17;6.65;;;;;;;8.15;59.39;99668.75;5110757;28;20479;-77
2022/02/19 02:32:51;;;;;;;10.40;5.78;;;;;;;8.19;59.49;99680.88;5112659;28;20031;-77
2022/02/19 02:35:17;;;;;;;11.50;6.70;;;;;;;8.16;60.07;99681.16;5113059;28;20035;-78
2022/02/19 02:37:42;;;;;;;14.88;6.45;;;;;;;8.18;60.14;99679.16;5111851;28;20464;-78
2022/02/19 02:40:09;;;;;;;14.13;6.45;;;;;;;8.16;60.10;99686.50;5112102;27;20028;-77
2022/02/19 02:42:35;;;;;;;19.05;6.35;;;;;;;8.13;60.73;99684.91;5110309;28;20015;-78
2022/02/19 02:45:01;;;;;;;15.98;6.07;;;;;;;8.09;60.67;99685.34;5111967;28;20023;-75
2022/02/19 02:47:26;;;;;;;12.55;5.75;;;;;;;8.09;61.23;99686.16;5111292;28;20023;-77
2022/02/19 02:49:52;;;;;;;16.05;6.20;;;;;;;8.17;61.06;99705.06;5111770;28;20024;-77
2022/02/19 02:52:17;;;;;;;12.68;5.60;;;;;;;8.05;61.21;99687.41;5111100;28;20026;-76
2022/02/19 02:54:42;;;;;;;14.55;6.22;;;;;;;8.01;61.25;99680.66;5110823;28;20051;-76
2022/02/19 02:57:10;;;;;;;16.00;6.20;;;;;;;8.09;61.64;99698.69;5110747;28;20035;-77
2022/02/19 02:59:35;;;;;;;11.98;5.72;;;;;;;8.13;61.84;99705.44;5111203;28;20043;-77
2022/02/19 03:02:01;;;;;;;11.27;5.65;;;;;;;8.05;61.84;99689.25;5111172;28;20285;-77
2022/02/19 03:04:26;;;;;;;15.57;5.53;;;;;;;8.12;62.67;99701.06;5110734;28;20030;-77
2022/02/19 03:06:52;;;;;;;12.23;6.85;;;;;;;8.13;62.80;99702.78;5107735;28;20054;-68
2022/02/19 03:09:17;;;;;;;12.60;5.55;;;;;;;8.12;62.83;99690.38;5107487;28;20055;-67
2022/02/19 03:11:42;;;;;;;12.93;5.53;;;;;;;8.12;63.35;99712.59;5107011;28;20031;-68
2022/02/19 03:14:10;;;;;;;16.52;6.93;;;;;;;8.05;63.57;99705.25;5107301;28;20042;-68
2022/02/19 03:16:36;;;;;;;15.52;5.30;;;;;;;8.09;63.83;99712.06;5107980;28;20382;-68
2022/02/19 03:19:03;;;;;;;18.92;7.03;;;;;;;8.10;63.62;99714.56;5107302;28;20044;-68
2022/02/19 03:21:29;;;;;;;12.00;5.90;;;;;;;8.09;64.58;99715.53;5107868;28;20020;-67
2022/02/19 03:23:54;;;;;;;12.90;6.03;;;;;;;8.14;64.31;99707.13;5107462;28;20443;-68
2022/02/19 03:26:20;;;;;;;13.40;6.47;;;;;;;8.05;65.14;99700.78;5105825;28;20022;-68
2022/02/19 03:28:45;;;;;;;12.43;5.80;;;;;;;8.09;65.95;99707.53;5112109;28;20108;-78
2022/02/19 03:31:11;;;;;;;20.58;6.40;;;;;;;8.12;66.20;99719.75;5111280;28;20027;-76
2022/02/19 03:33:36;;;;;;;11.02;5.78;;;;;;;8.14;66.26;99729.34;5111026;28;20043;-76
2022/02/19 03:36:02;;;;;;;8.93;5.20;;;;;;;8.17;66.66;99736.25;5112848;28;20027;-76
2022/02/19 03:38:28;;;;;;;10.93;5.00;;;;;;;8.21;66.36;99730.50;5113454;28;20115;-78
2022/02/19 03:40:53;;;;;;;12.18;4.68;;;;;;;8.19;66.95;99715.59;5111615;28;20040;-77
2022/02/19 03:43:18;;;;;;;12.43;4.97;;;;;;;8.29;67.26;99729.88;5107021;28;20116;-67
2022/02/19 03:45:45;;;;;;;9.80;4.80;;;;;;;8.19;67.63;99720.94;5106707;27;20027;-68
2022/02/19 03:48:11;;;;;;;8.45;4.80;;;;;;;8.31;67.64;99734.09;5106438;28;20027;-68
2022/02/19 03:50:37;;;;;;;9.52;4.90;;;;;;;8.35;67.38;99732.00;5106827;28;20505;-68
2022/02/19 03:53:03;;;;;;;10.07;4.60;;;;;;;8.29;67.59;99730.69;5107231;28;20027;-68
2022/02/19 03:55:29;;;;;;;11.88;4.97;;;;;;;8.35;67.65;99740.03;5106525;28;20032;-67
2022/02/19 03:57:55;;;;;;;12.10;5.20;;;;;;;8.40;67.92;99743.13;5106655;28;20146;-67
2022/02/19 04:00:21;;;;;;;10.73;5.05;;;;;;;8.42;68.33;99758.03;5105308;28;20467;-68
2022/02/19 04:02:47;;;;;;;9.40;4.88;;;;;;;8.48;67.75;99768.19;5106725;28;20028;-67
2022/02/19 04:05:14;;;;;;;9.05;4.25;;;;;;;8.50;67.71;99784.09;5106736;28;20382;-68
2022/02/19 04:07:39;;;;;;;10.27;4.53;;;;;;;8.56;68.03;99797.78;5106468;28;20088;-68
2022/02/19 04:10:07;;;;;;;8.23;4.78;;;;;;;8.58;67.89;99795.78;5106604;28;20027;-68
2022/02/19 04:12:33;;;;;;;11.52;5.53;;;;;;;8.60;67.71;99803.69;5104880;28;20027;-68
2022/02/19 04:14:58;;;;;;;11.77;5.18;;;;;;;8.64;68.04;99805.13;5104580;28;20107;-67
2022/02/19 04:17:24;;;;;;;14.15;5.28;;;;;;;8.83;67.48;99816.72;5105387;28;20035;-68
2022/02/19 04:19:50;;;;;;;11.77;5.05;;;;;;;8.82;67.25;99822.19;5106122;28;20049;-68
2022/02/19 04:22:21;;;;;;;9.20;5.00;;;;;;;8.81;67.29;99833.88;5105746;28;20390;-69
2022/02/19 04:24:47;;;;;;;8.63;4.55;;;;;;;8.71;67.41;99809.75;5104984;28;20573;-69
2022/02/19 04:27:13;;;;;;;13.15;5.28;;;;;;;8.92;66.86;99831.09;5105158;28;20024;-67
2022/02/19 04:29:39;;;;;;;10.73;4.55;;;;;;;8.96;66.99;99844.06;5105359;28;20089;-67
2022/02/19 04:32:06;;;;;;;8.98;4.57;;;;;;;8.97;67.20;99839.56;5104288;28;20024;-68
2022/02/19 04:34:32;;;;;;;9.68;4.55;;;;;;;9.03;66.78;99839.84;5104341;28;20449;-69
2022/02/19 04:36:57;;;;;;;8.60;4.60;;;;;;;9.17;66.29;99857.34;5104141;28;20115;-69
2022/02/19 04:39:22;;;;;;;8.55;5.28;;;;;;;9.14;66.06;99858.47;5104876;28;20032;-69
2022/02/19 04:41:48;;;;;;;7.78;4.88;;;;;;;9.26;66.06;99861.88;5104389;28;20030;-67
2022/02/19 04:44:14;;;;;;;12.63;5.18;;;;;;;9.18;65.69;99851.88;5104370;28;20040;-68
2022/02/19 04:46:39;;;;;;;15.02;5.75;;;;;;;9.20;65.82;99865.94;5102981;28;20062;-69
2022/02/19 04:49:05;;;;;;;12.18;5.22;;;;;;;9.23;66.06;99862.97;5105057;28;20506;-69
2022/02/19 04:51:30;;;;;;;9.65;4.70;;;;;;;9.29;65.97;99862.44;5105060;28;20092;-68
2022/02/19 04:53:56;;;;;;;9.65;4.40;;;;;;;9.28;66.01;99870.59;5105233;28;20054;-68
2022/02/19 04:56:21;;;;;;;11.38;4.70;;;;;;;9.28;66.30;99863.44;5104988;28;20051;-69
2022/02/19 04:58:47;;;;;;;8.27;4.80;;;;;;;9.28;66.39;99860.75;5105025;28;20035;-68
2022/02/19 05:01:13;;;;;;;12.20;5.05;;;;;;;9.32;66.16;99871.19;5103635;28;20024;-67
2022/02/19 05:03:38;;;;;;;7.03;4.18;;;;;;;9.25;66.29;99861.03;5105148;28;20032;-68
2022/02/19 05:06:04;;;;;;;11.07;5.47;;;;;;;9.32;66.69;99884.56;5105072;28;20069;-67
2022/02/19 05:08:30;;;;;;;9.48;4.35;;;;;;;9.33;66.90;99879.91;5104631;28;20062;-67
2022/02/19 05:10:55;;;;;;;10.13;5.13;;;;;;;9.37;66.69;99884.97;5104973;28;20015;-68
2022/02/19 05:13:21;;;;;;;10.73;4.35;;;;;;;9.30;66.76;99879.34;5104778;28;20048;-67
2022/02/19 05:15:47;;;;;;;9.88;5.15;;;;;;;9.41;67.04;99891.78;5104906;28;20556;-68
2022/02/19 05:18:14;;;;;;;7.75;4.57;;;;;;;9.37;66.91;99895.69;5104073;28;20034;-67
2022/02/19 05:20:41;;;;;;;10.20;5.00;;;;;;;9.37;67.42;99903.72;5104891;28;20482;-68
2022/02/19 05:23:06;;;;;;;8.75;5.07;;;;;;;9.31;67.00;99889.06;5105281;28;20483;-67
2022/02/19 05:25:32;;;;;;;7.85;4.40;;;;;;;9.40;67.10;99909.66;5104953;28;20077;-68
2022/02/19 05:27:58;;;;;;;8.50;4.22;;;;;;;9.42;67.52;99912.19;5104984;28;20045;-69
2022/02/19 05:30:23;;;;;;;11.15;4.72;;;;;;;9.36;67.81;99888.66;5104970;28;20024;-69
2022/02/19 05:32:48;;;;;;;9.48;5.05;;;;;;;9.42;67.29;99904.16;5104807;28;20024;-69
2022/02/19 05:35:14;;;;;;;8.85;4.60;;;;;;;9.41;67.63;99924.72;5108793;28;20031;-69
2022/02/19 05:37:40;;;;;;;13.50;5.25;;;;;;;9.39;67.75;99932.06;5108807;28;20044;-69
2022/02/19 05:40:06;;;;;;;9.07;4.82;;;;;;;9.40;67.56;99939.09;5108986;28;20052;-71
2022/02/19 05:42:31;;;;;;;11.38;5.00;;;;;;;9.42;67.59;99949.66;5108750;28;20020;-70
2022/02/19 05:44:57;;;;;;;9.75;4.75;;;;;;;9.39;67.44;99947.25;5108500;28;20049;-71
2022/02/19 05:47:22;;;;;;;10.13;5.35;;;;;;;9.41;67.82;99950.66;5108715;28;20028;-71
2022/02/19 05:49:49;;;;;;;9.73;5.57;;;;;;;9.42;67.76;99971.94;5108706;28;20035;-71
2022/02/19 05:52:16;;;;;;;8.52;5.18;;;;;;;9.31;68.24;99955.97;5108767;28;20035;-71
2022/02/19 05:54:42;;;;;;;8.95;4.97;;;;;;;9.41;68.43;99977.44;5108871;28;20047;-71
2022/02/19 05:57:07;;;;;;;8.90;5.20;;;;;;;9.43;68.16;99988.81;5108515;28;20023;-71
2022/02/19 05:59:33;;;;;;;10.50;5.53;;;;;;;9.48;68.44;99991.94;5108521;28;20031;-70
2022/02/19 06:01:59;;;;;;;9.43;5.40;;;;;;;9.49;68.49;99985.59;5108039;28;20031;-71
2022/02/19 06:04:24;;;;;;;10.07;4.90;;;;;;;9.45;68.58;99984.19;5108647;28;20068;-71
2022/02/19 06:06:50;;;;;;;13.75;5.47;;;;;;;9.52;68.95;100015.66;5108511;28;20031;-71
2022/02/19 06:09:15;;;;;;;10.68;5.03;;;;;;;9.45;69.24;100009.13;5107283;28;20072;-71
2022/02/19 06:11:42;;;;;;;9.38;5.03;;;;;;;9.50;69.58;100025.63;5108756;28;20474;-71
2022/02/19 06:14:08;;;;;;;12.68;5.65;;;;;;;9.47;69.96;100015.19;5108268;28;20043;-71
2022/02/19 06:16:33;;;;;;;10.30;5.43;;;;;;;9.62;69.91;100039.75;5106758;28;20032;-70
2022/02/19 06:18:59;;;;;;;11.35;5.47;;;;;;;9.51;70.21;100030.00;5108521;28;20023;-71
2022/02/19 06:21:24;;;;;;;10.30;6.30;;;;;;;9.66;70.60;100036.69;5107988;28;20819;-70
2022/02/19 06:23:50;;;;;;;15.60;5.65;;;;;;;9.74;70.21;100050.22;5101778;27;20066;-69
2022/02/19 06:26:15;;;;;;;13.10;5.53;;;;;;;9.78;70.27;100057.03;5105491;28;20022;-70
2022/02/19 06:28:40;;;;;;;7.47;5.10;;;;;;;9.71;69.93;100039.81;5105261;27;20016;-70
2022/02/19 06:31:06;;;;;;;7.30;5.18;;;;;;;9.79;69.71;100065.88;5105649;27;20027;-69
2022/02/19 06:33:31;;;;;;;9.52;5.13;;;;;;;9.95;68.92;100069.75;5105123;28;20031;-71
2022/02/19 06:35:57;;;;;;;8.75;5.10;;;;;;;9.94;68.74;100073.44;5105462;27;20055;-70
2022/02/19 06:38:23;;;;;;;8.68;5.38;;;;;;;9.97;69.17;100077.66;5105389;28;20170;-69
2022/02/19 06:40:48;;;;;;;9.75;5.47;;;;;;;9.83;69.73;100060.13;5104083;28;20765;-70
2022/02/19 06:43:14;;;;;;;10.30;5.45;;;;;;;10.04;69.30;100078.81;5104706;28;20085;-70
2022/02/19 06:45:40;;;;;;;10.93;4.90;;;;;;;10.03;69.05;100079.78;5101781;27;20040;-78
2022/02/19 06:48:05;;;;;;;9.23;5.38;;;;;;;9.91;69.27;100065.66;5106674;28;20051;-77
2022/02/19 06:50:31;;;;;;;12.88;5.53;;;;;;;10.13;67.90;100089.56;5106987;27;20031;-78
2022/02/19 06:52:56;;;;;;;11.32;4.90;;;;;;;10.18;67.02;100102.56;5107213;28;20491;-77
2022/02/19 06:55:22;;;;;;;12.07;4.78;;;;;;;10.17;66.69;100112.44;5107120;28;20540;-74
2022/02/19 06:57:48;;;;;;;11.55;5.40;;;;;;;10.17;66.90;100101.72;5107881;28;20414;-76
2022/02/19 07:00:15;;;;;;;8.55;4.80;;;;;;;10.18;66.22;100105.22;5107172;28;20398;-75
2022/02/19 07:02:41;;;;;;;10.77;5.70;;;;;;;10.12;66.08;100098.59;5106454;27;20039;-76
2022/02/19 07:05:08;;;;;;;11.32;5.00;;;;;;;10.17;66.13;100112.44;5107836;28;20144;-74
2022/02/19 07:07:33;;;;;;;7.88;4.90;;;;;;;10.13;65.28;100105.63;5106519;27;20054;-70
2022/02/19 07:09:59;;;;;;;10.13;5.35;;;;;;;10.27;65.41;100129.41;5103789;28;20031;-70
2022/02/19 07:12:25;;;;;;;9.57;5.43;;;;;;;10.24;65.51;100127.00;5105101;27;20069;-70
2022/02/19 07:14:50;;;;;;;10.75;5.45;;;;;;;10.17;66.09;100133.88;5105616;28;20034;-70
2022/02/19 07:17:15;;;;;;;8.70;4.80;;;;;;;10.19;66.10;100142.63;5102302;27;20058;-70
2022/02/19 07:19:41;;;;;;;8.00;4.88;;;;;;;10.22;66.09;100147.72;5105270;28;20031;-70
2022/02/19 07:22:06;;;;;;;12.95;5.53;;;;;;;10.24;65.54;100145.75;5104960;28;20039;-70
2022/02/19 07:24:32;;;;;;;14.00;5.97;;;;;;;10.38;65.16;100157.94;5104845;28;20160;-70
2022/02/19 07:26:58;;;;;;;8.88;4.88;;;;;;;10.31;64.09;100154.06;5104244;27;20034;-69
2022/02/19 07:29:24;;;;;;;9.82;4.15;;;;;;;10.24;63.52;100150.25;5104661;28;20157;-70
2022/02/19 07:31:50;;;;;;;5.88;3.90;;;;;;;10.35;61.71;100175.13;5104211;28;20035;-71
2022/02/19 07:34:18;;;;;;;6.57;3.08;;;;;;;10.29;60.98;100172.16;5103979;27;20047;-69
2022/02/19 07:36:44;;;;;;;9.02;2.30;;;;;;;10.54;57.41;100180.53;5104539;28;20147;-70
2022/02/19 07:39:10;;;;;;;3.05;1.75;;;;;;;10.62;55.98;100194.13;5104580;27;20543;-69
2022/02/19 07:41:37;;;;;;;5.70;2.10;;;;;;;10.63;55.49;100190.44;5105473;28;20106;-69
2022/02/19 07:44:04;;;;;;;3.22;1.13;;;;;;;10.64;54.28;100186.75;5104931;27;20047;-71
2022/02/19 07:46:29;;;;;;;4.28;1.15;;;;;;;10.79;53.38;100205.97;5104477;28;20047;-69
2022/02/19 07:48:55;;;;;;;2.28;1.17;;;;;;;10.78;52.48;100205.16;5105049;27;20063;-70
2022/02/19 07:59:32;;;;;;;5.50;0.90;;;;;;;10.88;50.13;100227.47;5105024;27;20047;-71
2022/02/19 08:01:58;;;;;;;4.15;0.95;;;;;;;10.89;49.98;100231.84;5103080;28;20233;-69
2022/02/19 08:04:23;;;;;;;5.32;1.58;;;;;;;11.06;49.16;100231.16;5103456;27;20425;-70
2022/02/19 08:06:49;;;;;;;7.57;1.45;;;;;;;10.94;49.95;100218.03;5105068;28;20111;-71
2022/02/19 08:09:15;;;;;;;1.25;0.80;;;;;;;11.01;49.96;100241.47;5103491;27;20047;-70
2022/02/19 08:11:40;;;;;;;2.80;1.10;;;;;;;11.13;48.83;100234.97;5104121;28;20103;-71
2022/02/19 08:14:06;;;;;;;2.03;0.80;;;;;;;10.98;48.81;100224.78;5103280;27;20031;-70
2022/02/19 08:16:32;;;;;;;5.00;1.08;;;;;;;11.06;48.75;100236.53;5103603;28;20023;-71
2022/02/19 08:18:58;;;;;;;3.95;1.10;;;;;;;11.10;49.31;100250.53;5104285;28;20368;-70
2022/02/19 08:21:24;;;;;;;4.00;1.00;;;;;;;11.14;48.76;100255.47;5103264;28;20445;-70
2022/02/19 08:23:50;;;;;;;2.58;0.95;;;;;;;11.21;48.26;100255.75;5104261;28;20031;-71
2022/02/19 08:26:23;;;;;;;3.90;0.85;;;;;;;11.19;48.24;100247.84;5103484;27;20059;-70
2022/02/19 08:28:49;;;;;;;12.82;1.30;;;;;;;11.36;47.30;100265.09;5104328;28;20035;-70
2022/02/19 08:31:15;;;;;;;3.15;1.42;;;;;;;11.30;47.23;100244.19;5102483;27;20048;-70
2022/02/19 08:33:40;;;;;;;3.75;1.30;;;;;;;11.33;47.32;100266.22;5103119;28;20776;-70
2022/02/19 08:36:06;;;;;;;4.93;1.25;;;;;;;11.26;48.18;100273.13;5103816;28;20445;-70
2022/02/19 08:38:32;;;;;;;5.45;1.88;;;;;;;11.29;48.33;100283.59;5104809;28;20023;-71
2022/02/19 08:40:57;;;;;;;4.00;1.85;;;;;;;11.29;48.09;100291.66;5102756;28;20486;-71
2022/02/19 08:43:23;;;;;;;4.55;1.55;;;;;;;11.32;47.63;100291.38;5104162;28;20035;-70
2022/02/19 08:45:48;;;;;;;4.60;2.15;;;;;;;11.36;47.04;100279.34;5101507;27;20096;-70
2022/02/19 08:48:14;;;;;;;6.55;1.77;;;;;;;11.28;47.45;100275.66;5103627;28;20070;-70
2022/02/19 08:50:40;;;;;;;6.35;1.73;;;;;;;11.29;46.32;100288.97;5104377;28;20042;-70
2022/02/19 08:53:06;;;;;;;4.10;1.45;;;;;;;11.22;47.23;100287.81;5103932;28;20062;-70
2022/02/19 08:55:31;;;;;;;4.47;1.77;;;;;;;11.17;46.99;100278.50;5102762;28;20475;-70
2022/02/19 08:57:57;;;;;;;8.90;1.90;;;;;;;11.30;46.19;100289.81;5102790;28;20031;-70
2022/02/19 09:00:23;;;;;;;4.97;1.67;;;;;;;11.34;45.20;100277.81;5103988;28;20128;-70
2022/02/19 09:02:49;;;;;;;3.90;1.10;;;;;;;11.35;45.11;100304.50;5103254;27;20039;-69
2022/02/19 09:05:17;;;;;;;5.50;1.10;;;;;;;11.33;44.79;100324.44;5103529;28;20394;-68
2022/02/19 09:07:43;;;;;;;4.03;1.10;;;;;;;11.32;43.93;100326.28;5102697;28;20055;-69
2022/02/19 09:10:11;;;;;;;2.65;1.00;;;;;;;11.23;44.96;100335.16;5108316;28;20039;-68
2022/02/19 09:12:37;;;;;;;10.40;3.20;;;;;;;11.19;44.83;100340.97;5109318;28;20036;-69
2022/02/19 09:15:04;;;;;;;10.95;2.08;;;;;;;11.49;43.29;100348.91;5106823;28;20118;-69
2022/02/19 09:17:30;;;;;;;4.38;1.65;;;;;;;11.40;43.50;100352.44;5110851;28;20085;-71
2022/02/19 09:19:55;;;;;;;4.45;1.30;;;;;;;11.35;43.95;100360.03;5109372;28;20046;-71
2022/02/19 09:22:21;;;;;;;5.30;1.02;;;;;;;11.34;43.56;100367.28;5109010;28;20478;-70
2022/02/19 09:24:46;;;;;;;4.70;1.30;;;;;;;11.37;44.19;100371.50;5109384;28;20024;-70
2022/02/19 09:27:11;;;;;;;5.35;1.15;;;;;;;11.25;44.04;100368.09;5110581;28;20032;-70
2022/02/19 09:29:37;;;;;;;1.83;1.00;;;;;;;11.22;44.53;100384.47;5110792;28;20035;-70
2022/02/19 09:32:03;;;;;;;3.95;0.95;;;;;;;11.25;44.23;100386.88;5108098;28;20088;-69
2022/02/19 09:34:28;;;;;;;4.88;0.98;;;;;;;11.22;44.92;100395.22;5110226;28;20039;-70
2022/02/19 09:36:54;;;;;;;3.75;0.93;;;;;;;11.30;44.10;100400.75;5110569;28;20035;-68
2022/02/19 09:39:20;;;;;;;4.10;1.20;;;;;;;11.40;44.12;100400.78;5110179;28;20566;-69
2022/02/19 09:41:47;;;;;;;4.72;1.30;;;;;;;11.38;44.58;100414.34;5109991;27;20026;-69
2022/02/19 09:44:13;;;;;;;9.05;1.60;;;;;;;11.35;44.48;100414.59;5108709;28;20058;-70
2022/02/19 09:46:39;;;;;;;4.70;1.15;;;;;;;11.36;44.11;100415.47;5110187;28;20023;-70
2022/02/19 09:49:06;;;;;;;5.78;1.70;;;;;;;11.29;44.20;100409.78;5110125;28;20169;-70
2022/02/19 09:51:32;;;;;;;6.65;1.55;;;;;;;11.27;44.84;100410.91;5108968;28;20490;-70
2022/02/19 09:53:58;;;;;;;3.67;1.20;;;;;;;11.36;44.80;100427.03;5110668;28;20402;-77
2022/02/19 09:56:27;;;;;;;9.02;1.52;;;;;;;11.33;44.15;100429.16;5111350;28;20036;-77
2022/02/19 09:58:54;;;;;;;3.20;1.50;;;;;;;11.55;43.71;100428.94;5113196;28;20026;-78
2022/02/19 10:01:24;;;;;;;4.20;1.20;;;;;;;11.61;43.13;100430.22;5112192;28;20616;-77
2022/02/19 10:04:02;;;;;;;3.63;1.65;;;;;;;11.46;43.61;100419.03;5112082;28;20032;-78
2022/02/19 10:06:39;;;;;;;6.72;0.93;;;;;;;11.72;43.26;100439.03;5113303;27;20069;-78
2022/02/19 10:09:17;;;;;;;4.55;1.20;;;;;;;11.76;42.64;100435.09;5113496;28;20030;-77
2022/02/19 10:11:47;;;;;;;5.50;1.23;;;;;;;11.73;43.25;100434.53;5113519;28;20022;-78
2022/02/19 10:14:18;;;;;;;4.82;1.20;;;;;;;11.60;43.70;100445.47;5112991;28;20034;-77
2022/02/19 10:16:44;;;;;;;4.13;1.52;;;;;;;11.58;43.21;100442.94;5112578;28;20028;-78
2022/02/19 10:19:09;;;;;;;38.05;3.00;;;;;;;11.58;43.13;100455.53;5112072;28;20030;-77
2022/02/19 10:21:35;;;;;;;4.65;1.77;;;;;;;11.45;43.11;100434.28;5112796;28;20030;-78
2022/02/19 10:24:02;;;;;;;3.95;1.90;;;;;;;11.43;43.30;100440.78;5112140;28;20057;-77
2022/02/19 10:26:33;;;;;;;5.15;1.63;;;;;;;11.64;43.03;100451.47;5111127;28;20027;-77
2022/02/19 10:29:07;;;;;;;2.28;1.10;;;;;;;11.67;42.67;100457.41;5107733;28;20020;-78
2022/02/19 10:31:34;;;;;;;5.88;1.73;;;;;;;11.74;42.17;100449.66;5108897;28;20115;-79
2022/02/19 10:34:07;;;;;;;2.75;1.30;;;;;;;11.71;41.39;100439.19;5108294;28;20680;-77
2022/02/19 10:36:43;;;;;;;6.03;1.40;;;;;;;11.63;41.95;100455.13;5110099;28;20081;-78
2022/02/19 10:39:08;;;;;;;5.95;2.00;;;;;;;11.53;42.09;100441.66;5109215;28;20044;-76
2022/02/19 10:41:35;;;;;;;17.98;1.90;;;;;;;11.58;42.23;100461.75;5102413;28;20746;-77
2022/02/19 10:44:21;;;;;;;4.43;1.25;;;;;;;11.65;42.05;100464.78;5109618;27;20039;-78
2022/02/19 10:46:48;;;;;;;8.82;1.55;;;;;;;11.91;40.06;100462.41;5111290;28;20094;-77
2022/02/19 10:49:13;;;;;;;7.32;1.50;;;;;;;11.83;40.06;100470.31;5110190;28;20665;-77
2022/02/19 10:51:40;;;;;;;5.13;1.33;;;;;;;11.71;40.02;100455.31;5110997;28;20031;-78
2022/02/19 10:54:08;;;;;;;3.75;1.00;;;;;;;11.72;39.13;100443.56;5110027;27;20047;-77
2022/02/19 10:56:35;;;;;;;8.70;1.10;;;;;;;11.69;39.27;100446.53;5108249;28;20031;-76
2022/02/19 10:59:05;;;;;;;6.15;1.58;;;;;;;11.69;38.99;100419.66;5109222;28;20604;-77
2022/02/19 11:01:40;;;;;;;6.28;1.15;;;;;;;11.80;39.54;100428.44;5110446;28;20081;-78
2022/02/19 11:04:11;;;;;;;3.45;1.10;;;;;;;11.91;39.34;100444.44;5110279;27;20048;-77
2022/02/19 11:06:37;;;;;;;5.07;0.98;;;;;;;11.95;38.79;100439.63;5108366;28;20023;-77
2022/02/19 11:09:05;;;;;;;3.50;1.10;;;;;;;11.87;39.42;100440.34;5110408;27;20130;-76
2022/02/19 11:11:36;;;;;;;4.43;1.35;;;;;;;11.87;38.73;100440.34;5110778;28;20019;-78
2022/02/19 11:14:08;;;;;;;7.30;1.80;;;;;;;11.93;38.55;100438.94;5107243;27;20019;-78
2022/02/19 11:16:34;;;;;;;7.68;1.08;;;;;;;11.91;38.76;100446.28;5110471;28;20050;-77
2022/02/19 11:19:00;;;;;;;5.35;1.63;;;;;;;11.93;39.07;100447.81;5110438;28;20110;-76
2022/02/19 11:21:27;;;;;;;5.05;1.00;;;;;;;11.79;39.16;100445.56;5110067;28;20555;-77
2022/02/19 11:23:54;;;;;;;8.07;1.23;;;;;;;11.74;39.42;100437.09;5110392;28;20035;-77
2022/02/19 11:26:22;;;;;;;13.90;2.55;;;;;;;11.94;39.08;100443.31;5108832;28;20092;-77
2022/02/19 11:28:50;;;;;;;9.93;2.10;;;;;;;11.85;39.42;100450.38;5109460;28;20020;-77
2022/02/19 11:31:16;;;;;;;12.05;3.13;;;;;;;11.82;39.49;100453.34;5109075;28;20122;-77
2022/02/19 11:33:45;;;;;;;8.18;3.03;;;;;;;11.82;39.72;100444.41;5110822;28;20535;-78